createdAt,value
2017-09-26T00:00:03.786Z,15.57
2017-09-26T00:02:30.457Z,15.93
2017-09-26T00:07:52.632Z,21.33
2017-09-26T00:10:20.239Z,18.37
2017-09-26T00:12:47.047Z,18.30
2017-09-26T00:15:14.704Z,18.90
2017-09-26T00:17:42.219Z,18.10
2017-09-26T00:20:09.448Z,22.70
2017-09-26T00:22:36.521Z,19.60
2017-09-26T00:25:04.100Z,14.90
2017-09-26T00:30:35.852Z,14.90
2017-09-26T00:33:18.969Z,14.73
2017-09-26T00:35:46.897Z,15.60
2017-09-26T00:38:15.328Z,14.57
2017-09-26T00:40:42.175Z,15.40
2017-09-26T00:43:09.943Z,17.07
2017-09-26T00:45:36.828Z,12.67
2017-09-26T00:50:59.469Z,13.37
2017-09-26T00:53:26.185Z,15.60
2017-09-26T00:55:52.994Z,13.90
2017-09-26T00:58:22.050Z,14.40
2017-09-26T01:00:48.932Z,13.33
2017-09-26T01:03:21.380Z,15.00
2017-09-26T01:08:54.261Z,13.33
2017-09-26T01:11:21.960Z,16.13
2017-09-26T01:13:48.667Z,15.93
2017-09-26T01:18:48.312Z,14.43
2017-09-26T01:21:16.099Z,15.97
2017-09-26T01:26:38.530Z,16.37
2017-09-26T01:29:05.250Z,13.53
2017-09-26T01:31:32.116Z,13.30
2017-09-26T01:33:58.969Z,12.80
2017-09-26T01:39:29.683Z,17.30
2017-09-26T01:41:57.247Z,16.33
2017-09-26T01:44:27.875Z,16.03
2017-09-26T01:46:55.200Z,16.57
2017-09-26T01:49:21.692Z,13.97
2017-09-26T01:51:49.329Z,13.53
2017-09-26T01:54:26.240Z,13.07
2017-09-26T01:56:59.151Z,14.03
2017-09-26T01:59:27.887Z,15.40
2017-09-26T02:01:54.658Z,14.50
2017-09-26T02:04:21.469Z,16.70
2017-09-26T02:06:49.607Z,18.90
2017-09-26T02:09:16.543Z,15.30
2017-09-26T02:11:43.239Z,17.07
2017-09-26T02:14:09.796Z,14.67
2017-09-26T02:16:36.335Z,14.23
2017-09-26T02:19:15.257Z,18.87
2017-09-26T02:24:18.635Z,20.57
2017-09-26T02:26:45.368Z,21.73
2017-09-26T02:29:12.312Z,19.40
2017-09-26T02:31:39.940Z,21.33
2017-09-26T02:34:06.740Z,21.13
2017-09-26T02:36:34.119Z,20.57
2017-09-26T02:39:01.586Z,17.97
2017-09-26T02:41:28.562Z,21.90
2017-09-26T02:43:56.259Z,23.23
2017-09-26T02:46:23.796Z,22.77
2017-09-26T02:48:51.695Z,20.97
2017-09-26T02:51:18.331Z,19.07
2017-09-26T02:53:47.936Z,20.77
2017-09-26T02:56:14.729Z,17.60
2017-09-26T02:58:42.604Z,25.80
2017-09-26T03:01:09.292Z,22.90
2017-09-26T03:03:35.920Z,27.30
2017-09-26T03:06:13.942Z,29.83
2017-09-26T03:08:41.511Z,25.47
2017-09-26T03:11:08.058Z,24.33
2017-09-26T03:13:34.680Z,28.60
2017-09-26T03:16:01.378Z,19.87
2017-09-26T03:18:27.975Z,21.87
2017-09-26T03:20:55.484Z,18.73
2017-09-26T03:23:23.422Z,19.23
2017-09-26T03:25:51.011Z,22.50
2017-09-26T03:28:18.692Z,24.03
2017-09-26T03:38:04.616Z,17.13
2017-09-26T03:43:28.663Z,23.40
2017-09-26T03:45:55.197Z,20.73
2017-09-26T03:48:21.907Z,20.70
2017-09-26T03:50:51.546Z,25.60
2017-09-26T03:53:18.247Z,22.03
2017-09-26T03:55:45.612Z,26.10
2017-09-26T03:58:12.436Z,19.03
2017-09-26T04:00:54.007Z,24.57
2017-09-26T04:03:23.841Z,21.00
2017-09-26T04:05:50.641Z,20.50
2017-09-26T04:08:17.551Z,24.83
2017-09-26T04:10:44.344Z,23.77
2017-09-26T04:13:11.903Z,24.60
2017-09-26T04:15:38.574Z,23.47
2017-09-26T04:18:05.902Z,24.73
2017-09-26T04:20:32.597Z,25.03
2017-09-26T04:23:04.293Z,26.13
2017-09-26T04:25:32.098Z,30.27
2017-09-26T04:27:59.035Z,23.83
2017-09-26T04:30:36.074Z,25.60
2017-09-26T04:33:05.581Z,21.93
2017-09-26T04:35:32.447Z,23.20
2017-09-26T04:37:59.232Z,21.73
2017-09-26T04:40:26.519Z,26.47
2017-09-26T04:42:53.711Z,24.97
2017-09-26T04:56:53.347Z,28.60
2017-09-26T04:59:19.888Z,26.93
2017-09-26T05:01:46.338Z,24.43
2017-09-26T05:04:12.964Z,21.00
2017-09-26T05:06:39.451Z,24.50
2017-09-26T05:09:06.126Z,28.60
2017-09-26T05:11:33.436Z,30.67
2017-09-26T05:13:59.982Z,28.70
2017-09-26T05:16:26.644Z,32.23
2017-09-26T05:18:53.388Z,23.13
2017-09-26T05:21:21.564Z,25.07
2017-09-26T05:23:49.411Z,21.60
2017-09-26T05:26:16.056Z,27.40
2017-09-26T05:28:43.233Z,24.83
2017-09-26T05:34:14.411Z,26.13
2017-09-26T05:36:42.283Z,27.83
2017-09-26T05:39:25.182Z,29.73
2017-09-26T05:41:52.406Z,40.63
2017-09-26T05:44:19.004Z,44.23
2017-09-26T05:46:46.433Z,48.20
2017-09-26T05:49:14.890Z,30.80
2017-09-26T05:51:41.632Z,59.00
2017-09-26T05:54:08.160Z,44.27
2017-09-26T05:59:30.751Z,39.60
2017-09-26T06:01:58.243Z,37.57
2017-09-26T06:04:25.622Z,40.03
2017-09-26T06:06:52.822Z,33.17
2017-09-26T06:09:19.731Z,38.93
2017-09-26T06:11:56.768Z,44.37
2017-09-26T06:14:23.547Z,47.10
2017-09-26T06:16:50.596Z,45.90
2017-09-26T06:19:17.564Z,39.87
2017-09-26T06:21:44.296Z,57.10
2017-09-26T06:24:11.852Z,54.40
2017-09-26T06:26:40.837Z,53.00
2017-09-26T06:32:22.124Z,33.50
2017-09-26T06:34:50.001Z,40.13
2017-09-26T06:37:20.335Z,42.67
2017-09-26T06:39:47.180Z,37.53
2017-09-26T06:42:13.938Z,41.67
2017-09-26T06:44:41.422Z,35.47
2017-09-26T06:47:08.607Z,41.83
2017-09-26T06:52:36.829Z,40.00
2017-09-26T06:55:03.569Z,33.50
2017-09-26T07:00:27.730Z,30.40
2017-09-26T07:02:54.648Z,38.77
2017-09-26T07:05:21.930Z,30.73
2017-09-26T07:07:48.561Z,37.87
2017-09-26T07:10:16.020Z,31.97
2017-09-26T07:12:42.545Z,34.07
2017-09-26T07:15:09.112Z,36.33
2017-09-26T07:17:40.593Z,35.27
2017-09-26T07:20:08.192Z,40.50
2017-09-26T07:22:34.916Z,42.00
2017-09-26T07:25:01.625Z,35.67
2017-09-26T07:27:29.979Z,45.73
2017-09-26T07:29:56.752Z,43.17
2017-09-26T07:32:24.257Z,40.60
2017-09-26T07:34:50.813Z,36.20
2017-09-26T07:37:17.395Z,39.30
2017-09-26T08:25:22.851Z,49.83
2017-09-26T08:27:50.360Z,39.87
2017-09-26T08:30:17.023Z,44.57
2017-09-26T08:35:42.210Z,41.03
2017-09-26T08:38:11.524Z,45.10
2017-09-26T08:40:38.336Z,41.50
2017-09-26T08:43:06.768Z,43.33
2017-09-26T08:45:34.568Z,42.80
2017-09-26T08:48:02.082Z,40.10
2017-09-26T08:50:29.541Z,42.60
2017-09-26T09:04:47.229Z,41.97
2017-09-26T09:07:14.278Z,46.07
2017-09-26T09:12:41.252Z,44.40
2017-09-26T09:15:18.765Z,45.03
2017-09-26T09:17:46.329Z,42.10
2017-09-26T09:20:13.784Z,43.40
2017-09-26T09:22:43.644Z,38.43
2017-09-26T09:25:11.160Z,42.67
2017-09-26T09:27:38.555Z,45.17
2017-09-26T09:30:05.174Z,40.87
2017-09-26T09:32:32.573Z,47.33
2017-09-26T09:34:59.033Z,42.00
2017-09-26T09:37:26.208Z,45.87
2017-09-26T09:39:52.896Z,38.83
2017-09-26T09:42:20.376Z,42.20
2017-09-26T09:44:47.738Z,48.03
2017-09-26T09:47:14.295Z,42.63
2017-09-26T09:49:42.959Z,41.87
2017-09-26T09:52:10.443Z,45.43
2017-09-26T10:06:04.474Z,38.60
2017-09-26T10:08:30.965Z,44.23
2017-09-26T10:26:28.656Z,37.37
2017-09-26T10:28:56.299Z,34.50
2017-09-26T10:31:22.899Z,35.87
2017-09-26T10:33:49.508Z,34.17
2017-09-26T10:38:48.770Z,30.47
2017-09-26T10:41:15.272Z,25.10
2017-09-26T10:43:42.603Z,28.30
2017-09-26T10:57:19.228Z,28.83
2017-09-26T10:59:46.742Z,26.50
2017-09-26T11:02:13.137Z,27.30
2017-09-26T11:04:41.162Z,22.33
2017-09-26T11:07:07.748Z,25.10
2017-09-26T11:09:35.044Z,23.13
2017-09-26T11:12:01.516Z,24.07
2017-09-26T11:14:29.096Z,20.83
2017-09-26T11:16:56.510Z,22.97
2017-09-26T11:19:23.344Z,21.93
2017-09-26T11:21:49.828Z,18.10
2017-09-26T11:27:15.108Z,23.37
2017-09-26T11:29:41.681Z,23.20
2017-09-26T11:32:08.132Z,19.93
2017-09-26T11:34:35.364Z,19.83
2017-09-26T11:39:58.548Z,25.80
2017-09-26T11:57:42.367Z,21.07
2017-09-26T12:00:08.924Z,23.00
2017-09-26T12:08:04.448Z,17.33
2017-09-26T12:10:32.224Z,16.90
2017-09-26T12:13:08.055Z,15.93
2017-09-26T12:15:34.499Z,16.53
2017-09-26T12:18:01.116Z,13.47
2017-09-26T12:20:37.977Z,13.70
2017-09-26T12:23:06.023Z,14.73
2017-09-26T12:25:34.594Z,11.43
2017-09-26T12:30:44.249Z,12.47
2017-09-26T12:33:12.912Z,14.83
2017-09-26T12:35:39.727Z,15.60
2017-09-26T12:53:23.351Z,15.93
2017-09-26T12:55:50.063Z,17.33
2017-09-26T13:01:00.944Z,16.77
2017-09-26T13:03:28.323Z,18.33
2017-09-26T13:05:54.901Z,16.10
2017-09-26T13:08:21.439Z,14.33
2017-09-26T13:10:48.267Z,16.33
2017-09-26T13:13:15.969Z,19.47
2017-09-26T13:15:43.281Z,20.27
2017-09-26T13:18:10.148Z,14.70
2017-09-26T13:20:36.576Z,15.80
2017-09-26T13:23:09.552Z,14.60
2017-09-26T13:25:46.118Z,14.47
2017-09-26T13:28:13.991Z,13.17
2017-09-26T13:30:44.188Z,13.67
2017-09-26T13:33:11.221Z,15.10
2017-09-26T13:35:38.211Z,13.90
2017-09-26T13:38:16.060Z,11.37
2017-09-26T13:40:43.367Z,11.40
2017-09-26T13:43:11.039Z,11.33
2017-09-26T13:45:37.698Z,10.43
2017-09-26T13:48:06.996Z,9.70
2017-09-26T13:50:34.552Z,10.13
2017-09-26T13:53:01.336Z,9.80
2017-09-26T13:55:27.689Z,11.13
2017-09-26T13:57:55.887Z,11.77
2017-09-26T14:00:22.739Z,10.77
2017-09-26T14:02:52.292Z,10.37
2017-09-26T14:05:18.861Z,10.27
2017-09-26T14:07:45.441Z,9.87
2017-09-26T14:10:13.396Z,12.97
2017-09-26T14:12:40.573Z,11.47
2017-09-26T14:15:08.722Z,12.80
2017-09-26T14:17:36.497Z,13.90
2017-09-26T14:20:03.734Z,13.73
2017-09-26T14:25:24.663Z,10.73
2017-09-26T14:30:48.480Z,9.30
2017-09-26T14:33:15.190Z,10.17
2017-09-26T14:35:55.356Z,9.43
2017-09-26T14:38:24.772Z,8.90
2017-09-26T14:40:51.346Z,8.43
2017-09-26T14:43:18.745Z,8.57
2017-09-26T14:45:46.162Z,8.23
2017-09-26T14:48:12.812Z,7.87
2017-09-26T14:50:40.079Z,6.60
2017-09-26T14:56:07.777Z,6.13
2017-09-26T14:58:34.331Z,6.53
2017-09-26T15:01:03.687Z,6.60
2017-09-26T15:03:30.244Z,5.90
2017-09-26T15:05:57.699Z,7.10
2017-09-26T15:08:25.080Z,6.20
2017-09-26T15:10:52.066Z,6.40
2017-09-26T15:13:18.803Z,6.70
2017-09-26T15:15:55.493Z,6.40
2017-09-26T15:18:22.251Z,6.40
2017-09-26T15:23:58.259Z,5.90
2017-09-26T15:29:05.701Z,7.03
2017-09-26T15:31:32.510Z,7.00
2017-09-26T15:34:01.008Z,7.33
2017-09-26T15:36:28.508Z,6.30
2017-09-26T15:38:55.232Z,7.00
2017-09-26T15:41:21.924Z,6.37
2017-09-26T15:43:49.236Z,6.17
2017-09-26T15:46:16.904Z,6.40
2017-09-26T15:48:45.336Z,6.63
2017-09-26T15:51:12.866Z,5.93
2017-09-26T15:53:39.575Z,6.60
2017-09-26T15:56:06.153Z,7.77
2017-09-26T15:58:35.816Z,7.77
2017-09-26T16:05:50.790Z,7.70
2017-09-26T16:08:17.521Z,7.03
2017-09-26T16:10:45.161Z,6.80
2017-09-26T16:13:11.885Z,8.07
2017-09-26T16:15:38.452Z,8.03
2017-09-26T16:35:31.138Z,9.37
2017-09-26T16:37:57.876Z,10.30
2017-09-26T16:40:24.340Z,13.23
2017-09-26T16:42:51.811Z,40.10
2017-09-26T16:45:19.355Z,54.47
2017-09-26T16:47:49.788Z,96.87
2017-09-26T16:50:16.412Z,12.30
2017-09-26T16:52:43.884Z,25.43
2017-09-26T16:55:11.294Z,22.17
2017-09-26T17:00:13.716Z,13.70
2017-09-26T17:02:40.635Z,10.50
2017-09-26T17:05:07.387Z,11.57
2017-09-26T17:07:35.587Z,8.50
2017-09-26T17:45:49.760Z,18.10
2017-09-26T17:48:18.260Z,13.87
2017-09-26T17:50:46.181Z,10.93
2017-09-26T17:53:13.044Z,16.37
2017-09-26T17:55:44.640Z,14.40
2017-09-26T18:01:05.626Z,13.77
2017-09-26T18:03:47.263Z,14.00
2017-09-26T18:06:14.077Z,15.00
2017-09-26T18:08:41.398Z,15.50
2017-09-26T18:16:55.983Z,16.60
2017-09-26T18:22:18.221Z,13.17
2017-09-26T18:24:45.611Z,13.00
2017-09-26T18:27:12.364Z,11.80
2017-09-26T18:33:13.314Z,15.20
2017-09-26T18:35:40.103Z,10.80
2017-09-26T18:41:00.887Z,11.97
2017-09-26T18:43:28.395Z,11.30
2017-09-26T18:45:55.220Z,10.87
2017-09-26T18:48:22.209Z,10.33
2017-09-26T18:50:50.794Z,10.17
2017-09-26T18:53:32.631Z,9.50
2017-09-26T18:55:59.121Z,11.77
2017-09-26T18:58:25.650Z,16.00
2017-09-26T19:00:52.310Z,20.77
2017-09-26T19:03:20.628Z,15.00
2017-09-26T19:05:49.374Z,13.87
2017-09-26T19:08:16.122Z,14.60
2017-09-26T19:10:57.754Z,18.77
2017-09-26T19:13:25.800Z,14.93
2017-09-26T19:15:52.604Z,15.50
2017-09-26T19:18:19.175Z,14.83
2017-09-26T19:23:42.932Z,19.13
2017-09-26T19:26:13.840Z,20.50
2017-09-26T19:28:41.111Z,21.10
2017-09-26T19:31:07.795Z,16.00
2017-09-26T19:33:38.331Z,14.53
2017-09-26T19:36:05.839Z,14.00
2017-09-26T19:38:47.654Z,14.50
2017-09-26T19:41:14.283Z,12.90
2017-09-26T19:43:42.077Z,16.50
2017-09-26T20:00:18.303Z,13.07
